createdAt,value
2022-09-15T00:01:58.880Z,15.86
2022-09-15T00:07:04.413Z,15.71
2022-09-15T00:12:13.211Z,15.89
2022-09-15T00:17:18.160Z,15.64
2022-09-15T00:22:22.845Z,15.20
2022-09-15T00:27:29.499Z,15.30
2022-09-15T00:32:34.042Z,15.24
2022-09-15T00:37:38.052Z,15.55
2022-09-15T00:42:43.468Z,15.54
2022-09-15T00:47:48.287Z,15.41
2022-09-15T00:52:59.594Z,15.46
2022-09-15T00:58:07.784Z,15.11
2022-09-15T01:03:11.788Z,15.08
2022-09-15T01:08:20.475Z,15.05
2022-09-15T01:13:26.836Z,15.02
2022-09-15T01:18:41.206Z,15.00
2022-09-15T01:24:30.557Z,15.13
2022-09-15T01:29:49.224Z,15.13
2022-09-15T01:35:00.588Z,15.29
2022-09-15T01:40:06.200Z,15.19
2022-09-15T01:45:16.806Z,15.23
2022-09-15T01:50:25.580Z,15.13
2022-09-15T01:55:34.010Z,14.67
2022-09-15T02:00:44.911Z,14.92
2022-09-15T02:05:56.202Z,15.09
2022-09-15T02:11:11.792Z,14.67
2022-09-15T02:16:21.136Z,14.63
2022-09-15T02:21:31.753Z,15.14
2022-09-15T02:26:39.727Z,15.02
2022-09-15T02:31:47.313Z,14.82
2022-09-15T02:36:53.448Z,15.03
2022-09-15T02:41:57.559Z,15.06
2022-09-15T02:47:03.955Z,15.01
2022-09-15T02:52:07.843Z,15.07
2022-09-15T02:57:11.783Z,15.17
2022-09-15T03:02:20.442Z,15.09
2022-09-15T03:07:25.002Z,14.99
2022-09-15T03:12:29.090Z,14.95
2022-09-15T03:17:37.123Z,14.97
2022-09-15T03:22:40.965Z,14.63
2022-09-15T03:27:45.011Z,14.38
2022-09-15T03:32:50.393Z,14.33
2022-09-15T03:37:54.267Z,14.66
2022-09-15T03:42:58.385Z,14.50
2022-09-15T03:48:04.581Z,13.83
2022-09-15T03:53:11.049Z,14.25
2022-09-15T03:58:14.964Z,14.31
2022-09-15T04:03:20.328Z,14.26
2022-09-15T04:08:24.536Z,14.23
2022-09-15T04:13:28.861Z,14.39
2022-09-15T04:18:34.272Z,14.59
2022-09-15T04:23:38.225Z,14.57
2022-09-15T04:28:42.170Z,14.14
2022-09-15T04:33:48.443Z,14.22
2022-09-15T04:38:52.872Z,14.54
2022-09-15T04:43:57.088Z,14.74
2022-09-15T04:49:02.556Z,14.43
2022-09-15T04:54:07.933Z,14.42
2022-09-15T04:59:15.758Z,14.58
2022-09-15T05:04:21.395Z,14.98
2022-09-15T05:09:26.655Z,15.25
2022-09-15T05:14:31.621Z,15.39
2022-09-15T05:19:37.004Z,15.34
2022-09-15T05:24:41.559Z,15.23
2022-09-15T05:29:45.921Z,15.41
2022-09-15T05:34:52.487Z,15.76
2022-09-15T05:39:59.551Z,15.62
2022-09-15T05:45:03.548Z,16.02
2022-09-15T05:50:09.672Z,16.12
2022-09-15T05:55:14.273Z,16.11
2022-09-15T06:00:19.060Z,16.42
2022-09-15T06:05:24.630Z,16.49
2022-09-15T06:10:28.591Z,16.58
2022-09-15T06:15:33.438Z,16.77
2022-09-15T06:20:38.745Z,17.15
2022-09-15T06:25:42.757Z,17.29
2022-09-15T06:30:49.590Z,17.71
2022-09-15T06:35:54.891Z,18.06
2022-09-15T06:40:59.645Z,18.42
2022-09-15T06:46:06.080Z,18.59
2022-09-15T06:51:14.206Z,19.04
2022-09-15T06:56:19.708Z,19.36
2022-09-15T07:01:28.246Z,19.72
2022-09-15T07:06:34.736Z,20.65
2022-09-15T07:11:38.760Z,21.13
2022-09-15T07:16:43.382Z,21.50
2022-09-15T07:21:48.681Z,22.10
2022-09-15T07:26:52.612Z,22.21
2022-09-15T07:31:57.735Z,23.12
2022-09-15T07:37:03.072Z,23.33
2022-09-15T07:42:08.146Z,23.85
2022-09-15T07:47:12.023Z,24.15
2022-09-15T07:52:17.381Z,24.87
2022-09-15T07:57:21.298Z,24.92
2022-09-15T08:02:25.261Z,25.13
2022-09-15T08:07:30.731Z,25.70
2022-09-15T08:12:34.690Z,26.65
2022-09-15T08:17:38.595Z,27.00
2022-09-15T08:22:45.585Z,27.28
2022-09-15T08:27:49.569Z,27.95
2022-09-15T08:32:53.526Z,28.58
2022-09-15T08:37:58.911Z,28.76
2022-09-15T08:43:13.478Z,28.34
2022-09-15T08:48:21.465Z,28.94
2022-09-15T08:53:30.697Z,29.15
2022-09-15T08:58:37.785Z,29.20
2022-09-15T09:03:59.835Z,29.11
2022-09-15T09:09:17.075Z,29.55
2022-09-15T09:14:33.924Z,29.91
2022-09-15T09:19:58.910Z,29.88
2022-09-15T09:25:21.246Z,30.02
2022-09-15T09:30:34.127Z,30.57
2022-09-15T09:35:45.045Z,30.30
2022-09-15T09:40:50.925Z,30.15
2022-09-15T09:45:55.236Z,30.49
2022-09-15T09:50:59.241Z,30.47
2022-09-15T09:56:26.172Z,30.68
2022-09-15T10:01:30.883Z,31.68
2022-09-15T10:06:34.943Z,32.11
2022-09-15T10:11:46.244Z,32.77
2022-09-15T10:17:02.118Z,32.53
2022-09-15T10:22:06.385Z,32.12
2022-09-15T10:27:20.607Z,32.23
2022-09-15T10:32:28.160Z,32.35
2022-09-15T10:37:36.347Z,32.72
2022-09-15T10:42:49.354Z,32.51
2022-09-15T10:48:10.044Z,32.51
2022-09-15T10:53:20.900Z,33.05
2022-09-15T10:58:45.878Z,33.19
2022-09-15T11:04:09.471Z,33.32
2022-09-15T11:09:20.012Z,33.68
2022-09-15T11:14:39.759Z,33.45
2022-09-15T11:20:02.592Z,33.81
2022-09-15T11:25:16.215Z,33.02
2022-09-15T11:30:24.423Z,32.67
2022-09-15T11:35:35.649Z,32.27
2022-09-15T11:40:43.458Z,31.85
2022-09-15T11:45:53.525Z,31.48
2022-09-15T11:51:02.477Z,30.96
2022-09-15T11:56:21.787Z,30.75
2022-09-15T12:01:34.174Z,30.32
2022-09-15T12:06:46.079Z,30.18
2022-09-15T12:11:53.911Z,30.00
2022-09-15T12:17:00.362Z,29.91
2022-09-15T12:22:14.994Z,29.90
2022-09-15T12:27:21.220Z,30.02
2022-09-15T12:32:28.865Z,30.23
2022-09-15T12:37:39.760Z,30.52
2022-09-15T12:42:46.721Z,30.60
2022-09-15T12:47:55.890Z,30.45
2022-09-15T12:53:02.176Z,30.27
2022-09-15T12:58:09.748Z,30.06
2022-09-15T13:03:49.978Z,30.26
2022-09-15T13:09:16.890Z,30.10
2022-09-15T13:14:29.063Z,30.21
2022-09-15T13:19:42.259Z,30.38
2022-09-15T13:24:49.812Z,30.63
2022-09-15T13:30:02.577Z,30.99
2022-09-15T13:35:29.878Z,31.14
2022-09-15T13:40:59.803Z,31.21
2022-09-15T13:46:20.740Z,31.11
2022-09-15T13:51:29.446Z,30.98
2022-09-15T13:56:38.006Z,30.85
2022-09-15T14:01:44.947Z,30.78
2022-09-15T14:06:52.287Z,30.66
2022-09-15T14:12:00.258Z,30.89
2022-09-15T14:17:05.584Z,30.86
2022-09-15T14:22:26.270Z,30.92
2022-09-15T14:27:33.363Z,30.90
2022-09-15T14:32:40.242Z,31.05
2022-09-15T14:37:49.899Z,31.10
2022-09-15T14:42:53.818Z,31.07
2022-09-15T14:48:04.431Z,31.10
2022-09-15T14:53:11.625Z,31.30
2022-09-15T14:58:22.423Z,31.27
2022-09-15T15:03:35.628Z,31.06
2022-09-15T15:08:43.985Z,31.02
2022-09-15T15:13:51.143Z,30.91
2022-09-15T15:18:57.285Z,30.97
2022-09-15T15:24:01.975Z,30.64
2022-09-15T15:29:09.786Z,30.59
2022-09-15T15:34:24.536Z,30.30
2022-09-15T15:39:29.422Z,30.04
2022-09-15T15:44:33.913Z,29.63
2022-09-15T15:49:46.188Z,29.41
2022-09-15T15:54:50.143Z,29.08
2022-09-15T15:59:57.538Z,28.83
2022-09-15T16:05:02.760Z,28.01
2022-09-15T16:10:08.286Z,27.52
2022-09-15T16:15:14.622Z,27.20
2022-09-15T16:20:23.441Z,27.38
2022-09-15T16:25:36.468Z,27.02
2022-09-15T16:30:40.308Z,26.50
2022-09-15T16:35:51.192Z,26.24
2022-09-15T16:40:55.971Z,26.29
2022-09-15T16:45:59.890Z,25.78
2022-09-15T16:51:27.416Z,25.38
2022-09-15T16:56:29.649Z,25.06
2022-09-15T17:01:33.920Z,25.03
2022-09-15T17:06:39.182Z,24.74
2022-09-15T17:11:43.428Z,24.38
2022-09-15T17:16:52.700Z,24.24
2022-09-15T17:21:57.993Z,24.09
2022-09-15T17:27:01.802Z,23.91
2022-09-15T17:32:06.260Z,23.39
2022-09-15T17:37:12.305Z,23.58
2022-09-15T17:42:16.148Z,23.49
2022-09-15T17:47:19.994Z,23.30
2022-09-15T17:52:25.203Z,23.33
2022-09-15T17:57:29.021Z,23.07
2022-09-15T18:02:33.247Z,22.99
2022-09-15T18:07:38.782Z,23.08
2022-09-15T18:12:47.329Z,22.93
2022-09-15T18:17:55.475Z,22.81
2022-09-15T18:23:02.703Z,22.78
2022-09-15T18:28:06.594Z,22.82
2022-09-15T18:33:15.269Z,22.74
2022-09-15T18:38:20.526Z,22.56
2022-09-15T18:43:26.723Z,22.48
2022-09-15T18:48:31.365Z,22.25
2022-09-15T18:53:37.954Z,22.14
2022-09-15T18:58:42.874Z,22.08
2022-09-15T19:03:47.609Z,21.92
2022-09-15T19:08:52.920Z,21.82
2022-09-15T19:13:56.923Z,21.72
2022-09-15T19:19:01.351Z,21.68
2022-09-15T19:24:06.715Z,21.80
2022-09-15T19:29:11.120Z,21.74
2022-09-15T19:34:16.210Z,21.62
2022-09-15T19:39:21.432Z,21.75
2022-09-15T19:44:25.402Z,21.62
2022-09-15T19:49:29.223Z,21.41
2022-09-15T19:54:34.518Z,21.17
2022-09-15T19:59:38.509Z,21.11
2022-09-15T20:04:43.690Z,21.26
2022-09-15T20:09:49.086Z,21.20
2022-09-15T20:14:53.143Z,21.13
2022-09-15T20:19:58.107Z,21.08
2022-09-15T20:25:03.434Z,21.31
2022-09-15T20:30:08.610Z,20.90
2022-09-15T20:35:12.385Z,20.92
2022-09-15T20:40:18.302Z,20.59
2022-09-15T20:45:22.252Z,20.36
2022-09-15T20:50:27.376Z,20.49
2022-09-15T20:55:33.267Z,20.24
2022-09-15T21:00:37.066Z,20.34
2022-09-15T21:05:41.095Z,20.43
2022-09-15T21:10:48.804Z,20.34
2022-09-15T21:15:57.909Z,20.43
2022-09-15T21:21:04.983Z,20.13
2022-09-15T21:26:12.094Z,19.82
2022-09-15T21:31:18.126Z,20.00
2022-09-15T21:36:24.835Z,20.04
2022-09-15T21:41:31.087Z,20.17
2022-09-15T21:46:35.154Z,19.92
2022-09-15T21:51:39.761Z,19.65
2022-09-15T21:56:45.667Z,19.60
2022-09-15T22:01:50.015Z,19.62
2022-09-15T22:06:54.075Z,19.37
2022-09-15T22:11:59.225Z,19.38
2022-09-15T22:17:03.035Z,19.43
2022-09-15T22:22:07.883Z,19.60
2022-09-15T22:27:13.217Z,19.35
2022-09-15T22:32:17.231Z,19.21
2022-09-15T22:37:21.138Z,19.36
2022-09-15T22:42:26.484Z,19.45
2022-09-15T22:47:30.558Z,19.60
2022-09-15T22:52:34.527Z,19.42
2022-09-15T22:57:39.810Z,18.96
2022-09-15T23:02:43.843Z,19.41
2022-09-15T23:07:47.671Z,19.03
2022-09-15T23:12:52.958Z,19.20
2022-09-15T23:17:58.112Z,19.13
2022-09-15T23:23:02.063Z,18.81
2022-09-15T23:28:07.291Z,18.57
2022-09-15T23:33:11.056Z,18.57
2022-09-15T23:38:14.988Z,18.65
2022-09-15T23:43:20.186Z,18.72
2022-09-15T23:48:25.215Z,18.75
2022-09-15T23:53:29.375Z,18.92
2022-09-15T23:58:34.650Z,18.39
